MSC Poh Lin — H8FC — position and weather

sailwx.info

Track history (hours):
 
Tides and Currents Weather Stations Pressure Air Temp Water Temp Dewpoint Dewpoint Depression Visibility Wind Speed Wind Dir Waves Ship Positions

MSC Poh Lin

Last reported at 2015-Mar-31 06:31 UTC. Time now 2015-Apr-01 01:13 UTC.
Position N 34°33' W 121°51'.

Length 294 m; draft 10.8 m.

Type: Ship (hazmat cat A). MMSI: 357405000.

Date/timePositionNaut miles runAvg speedWind from/ knotsBaromVisibWave heightAir tempDewpointWater temp
2015-Mar-31 06:31N 34°33' W 121°51'1814.5
2015-Mar-31 05:17N 34°30' W 121°29'1615.1
2015-Mar-31 04:16N 34°28' W 121°10'1415.6
2015-Mar-31 03:20N 34°26' W 120°53'1614.6
2015-Mar-31 02:15N 34°22' W 120°34'4615.3
2015-Mar-30 23:12N 34°10' W 119°40'2615.5
2015-Mar-30 21:31N 34°02' W 119°10'1212.8
2015-Mar-30 20:33N 33°56' W 118°57'2211.1
2015-Mar-30 18:33N 33°45' W 118°34'1111.1
2015-Mar-30 17:33N 33°39' W 118°23'9 8.9
2015-Mar-30 16:33N 33°40' W 118°12'6 6.0
2015-Mar-30 15:33N 33°46' W 118°14'0 0.3
2015-Mar-30 14:33N 33°46' W 118°14'0 0.0
2015-Mar-30 13:33N 33°46' W 118°14'0 0.0
2015-Mar-30 12:33N 33°46' W 118°14'0 0.0
2015-Mar-30 11:33N 33°46' W 118°14'0 0.0
2015-Mar-30 10:33N 33°46' W 118°14'0 0.0
2015-Mar-30 09:33N 33°46' W 118°14'0 0.0
2015-Mar-30 08:33N 33°46' W 118°14'0 0.0
2015-Mar-30 07:33N 33°46' W 118°14'0 0.0
2015-Mar-30 06:33N 33°46' W 118°14'0 0.0
2015-Mar-30 05:33N 33°46' W 118°14'0 0.0
2015-Mar-30 04:33N 33°46' W 118°14'0 0.0
2015-Mar-30 03:33N 33°46' W 118°14'0 0.0
2015-Mar-30 02:33N 33°46' W 118°14'0 0.0
2015-Mar-30 01:33N 33°46' W 118°14'0 0.0
2015-Mar-30 00:33N 33°46' W 118°14'0 0.0
2015-Mar-29 23:33N 33°46' W 118°14'0 0.0
2015-Mar-29 22:33N 33°46' W 118°14'0 0.0
2015-Mar-29 21:33N 33°46' W 118°14'0 0.0
2015-Mar-29 20:33N 33°46' W 118°14'0 0.0
2015-Mar-29 19:33N 33°46' W 118°14'0 0.0
2015-Mar-29 18:33N 33°46' W 118°14'0 0.0
2015-Mar-29 17:33N 33°46' W 118°14'0 0.0
2015-Mar-29 16:33N 33°46' W 118°14'0 0.0
2015-Mar-29 15:33N 33°46' W 118°14'0 0.0
2015-Mar-29 14:33N 33°46' W 118°14'1 1.3
2015-Mar-29 13:33N 33°45' W 118°13'7 6.4
2015-Mar-29 12:31N 33°39' W 118°10'2 2.0
2015-Mar-29 11:33N 33°38' W 118°08'6 6.3
2015-Mar-29 10:33N 33°31' W 118°08'6 5.9
2015-Mar-29 09:33N 33°26' W 118°06'8 7.6
2015-Mar-29 08:33N 33°19' W 118°02'1211.5
2015-Mar-29 07:33N 33°08' W 117°56'1212.3
2015-Mar-29 06:33N 32°57' W 117°51'1616.1
2015-Mar-29 05:33N 32°41' W 117°45'1616.0
2015-Mar-29 04:33N 32°26' W 117°40'1615.9
2015-Mar-29 03:33N 32°11' W 117°34'1615.8
2015-Mar-29 02:33N 31°56' W 117°28'7919.8
2015-Mar-28 22:33N 30°41' W 116°59'2019.9
2015-Mar-28 21:33N 30°22' W 116°52'2120.1
2015-Mar-28 20:31N 30°02' W 116°45'2020.4
2015-Mar-28 19:32N 29°43' W 116°37'2820.7
2015-Mar-28 18:12N 29°17' W 116°27'1420.3
2015-Mar-28 17:29N 29°03' W 116°23'2020.3
2015-Mar-28 16:29N 28°44' W 116°16'1920.2
2015-Mar-28 15:33N 28°26' W 116°10'2020.0
2015-Mar-28 14:33N 28°07' W 116°03'2019.9
2015-Mar-28 13:33N 27°50' W 115°51'2220.2
2015-Mar-28 12:28N 27°33' W 115°35'1920.4
2015-Mar-28 11:33N 27°18' W 115°22'2420.4
2015-Mar-28 10:22N 26°59' W 115°05'  
Track history (hours):
 
Tides and Currents Weather Stations Pressure Air Temp Water Temp Dewpoint Dewpoint Depression Visibility Wind Speed Wind Dir Waves Ship Positions

MSC Poh Lin

Last reported at 2015-Mar-31 06:31 UTC. Time now 2015-Apr-01 01:13 UTC.
Position N 34°33' W 121°51'.

Length 294 m; draft 10.8 m.

Type: Ship (hazmat cat A). MMSI: 357405000.

Date/timePositionNaut miles runAvg speedWind from/ knotsBaromVisibWave heightAir tempDewpointWater temp
2015-Mar-31 06:31N 34°33' W 121°51'1814.5
2015-Mar-31 05:17N 34°30' W 121°29'1615.1
2015-Mar-31 04:16N 34°28' W 121°10'1415.6
2015-Mar-31 03:20N 34°26' W 120°53'1614.6
2015-Mar-31 02:15N 34°22' W 120°34'4615.3
2015-Mar-30 23:12N 34°10' W 119°40'2615.5
2015-Mar-30 21:31N 34°02' W 119°10'1212.8
2015-Mar-30 20:33N 33°56' W 118°57'2211.1
2015-Mar-30 18:33N 33°45' W 118°34'1111.1
2015-Mar-30 17:33N 33°39' W 118°23'9 8.9
2015-Mar-30 16:33N 33°40' W 118°12'6 6.0
2015-Mar-30 15:33N 33°46' W 118°14'0 0.3
2015-Mar-30 14:33N 33°46' W 118°14'0 0.0
2015-Mar-30 13:33N 33°46' W 118°14'0 0.0
2015-Mar-30 12:33N 33°46' W 118°14'0 0.0
2015-Mar-30 11:33N 33°46' W 118°14'0 0.0
2015-Mar-30 10:33N 33°46' W 118°14'0 0.0
2015-Mar-30 09:33N 33°46' W 118°14'0 0.0
2015-Mar-30 08:33N 33°46' W 118°14'0 0.0
2015-Mar-30 07:33N 33°46' W 118°14'0 0.0
2015-Mar-30 06:33N 33°46' W 118°14'0 0.0
2015-Mar-30 05:33N 33°46' W 118°14'0 0.0
2015-Mar-30 04:33N 33°46' W 118°14'0 0.0
2015-Mar-30 03:33N 33°46' W 118°14'0 0.0
2015-Mar-30 02:33N 33°46' W 118°14'0 0.0
2015-Mar-30 01:33N 33°46' W 118°14'0 0.0
2015-Mar-30 00:33N 33°46' W 118°14'0 0.0
2015-Mar-29 23:33N 33°46' W 118°14'0 0.0
2015-Mar-29 22:33N 33°46' W 118°14'0 0.0
2015-Mar-29 21:33N 33°46' W 118°14'0 0.0
2015-Mar-29 20:33N 33°46' W 118°14'0 0.0
2015-Mar-29 19:33N 33°46' W 118°14'0 0.0
2015-Mar-29 18:33N 33°46' W 118°14'0 0.0
2015-Mar-29 17:33N 33°46' W 118°14'0 0.0
2015-Mar-29 16:33N 33°46' W 118°14'0 0.0
2015-Mar-29 15:33N 33°46' W 118°14'0 0.0
2015-Mar-29 14:33N 33°46' W 118°14'1 1.3
2015-Mar-29 13:33N 33°45' W 118°13'7 6.4
2015-Mar-29 12:31N 33°39' W 118°10'2 2.0
2015-Mar-29 11:33N 33°38' W 118°08'6 6.3
2015-Mar-29 10:33N 33°31' W 118°08'6 5.9
2015-Mar-29 09:33N 33°26' W 118°06'8 7.6
2015-Mar-29 08:33N 33°19' W 118°02'1211.5
2015-Mar-29 07:33N 33°08' W 117°56'1212.3
2015-Mar-29 06:33N 32°57' W 117°51'1616.1
2015-Mar-29 05:33N 32°41' W 117°45'1616.0
2015-Mar-29 04:33N 32°26' W 117°40'1615.9
2015-Mar-29 03:33N 32°11' W 117°34'1615.8
2015-Mar-29 02:33N 31°56' W 117°28'7919.8
2015-Mar-28 22:33N 30°41' W 116°59'2019.9
2015-Mar-28 21:33N 30°22' W 116°52'2120.1
2015-Mar-28 20:31N 30°02' W 116°45'2020.4
2015-Mar-28 19:32N 29°43' W 116°37'2820.7
2015-Mar-28 18:12N 29°17' W 116°27'1420.3
2015-Mar-28 17:29N 29°03' W 116°23'2020.3
2015-Mar-28 16:29N 28°44' W 116°16'1920.2
2015-Mar-28 15:33N 28°26' W 116°10'2020.0
2015-Mar-28 14:33N 28°07' W 116°03'2019.9
2015-Mar-28 13:33N 27°50' W 115°51'2220.2
2015-Mar-28 12:28N 27°33' W 115°35'1920.4
2015-Mar-28 11:33N 27°18' W 115°22'2420.4
2015-Mar-28 10:22N 26°59' W 115°05'  

Dump ship's entire track history